createdAt,value
2022-10-09T00:01:03.378Z,55.00
2022-10-09T00:03:31.047Z,54.30
2022-10-09T00:05:58.978Z,41.20
2022-10-09T00:08:27.157Z,46.20
2022-10-09T00:10:55.988Z,60.23
2022-10-09T00:13:23.893Z,62.53
2022-10-09T00:15:52.802Z,48.13
2022-10-09T00:18:20.323Z,54.37
2022-10-09T00:20:48.324Z,59.17
2022-10-09T00:23:17.448Z,56.13
2022-10-09T00:25:52.693Z,51.83
2022-10-09T00:28:20.595Z,42.83
2022-10-09T00:30:48.232Z,45.60
2022-10-09T00:33:17.618Z,39.70
2022-10-09T00:35:45.193Z,33.87
2022-10-09T00:38:13.250Z,26.27
2022-10-09T00:40:41.200Z,45.83
2022-10-09T00:43:15.601Z,47.27
2022-10-09T00:45:48.798Z,43.20
2022-10-09T00:48:19.433Z,54.70
2022-10-09T00:50:52.723Z,60.97
2022-10-09T00:53:23.113Z,45.37
2022-10-09T00:55:52.336Z,49.73
2022-10-09T00:58:20.645Z,66.43
2022-10-09T01:00:48.536Z,59.30
2022-10-09T01:03:17.477Z,58.90
2022-10-09T01:05:54.300Z,43.00
2022-10-09T01:08:29.128Z,60.47
2022-10-09T01:11:02.545Z,44.27
2022-10-09T01:13:37.582Z,54.87
2022-10-09T01:16:11.813Z,55.80
2022-10-09T01:18:48.264Z,45.10
2022-10-09T01:21:20.821Z,53.57
2022-10-09T01:23:58.427Z,50.63
2022-10-09T01:26:36.769Z,43.90
2022-10-09T01:29:09.120Z,57.23
2022-10-09T01:31:41.751Z,59.93
2022-10-09T01:34:11.509Z,42.23
2022-10-09T01:36:40.692Z,37.23
2022-10-09T01:39:10.969Z,34.77
2022-10-09T01:41:39.043Z,60.27
2022-10-09T01:44:18.079Z,60.00
2022-10-09T01:46:46.147Z,60.47
2022-10-09T01:49:26.130Z,65.30
2022-10-09T01:52:00.039Z,53.47
2022-10-09T01:54:35.797Z,54.33
2022-10-09T01:57:07.823Z,72.73
2022-10-09T01:59:40.560Z,85.37
2022-10-09T02:02:08.838Z,74.37
2022-10-09T02:04:39.787Z,62.37
2022-10-09T02:07:07.494Z,64.63
2022-10-09T02:09:36.373Z,66.90
2022-10-09T02:12:08.740Z,65.27
2022-10-09T02:14:39.368Z,66.40
2022-10-09T02:17:10.235Z,83.20
2022-10-09T02:19:42.707Z,89.30
2022-10-09T02:22:15.916Z,78.47
2022-10-09T02:24:44.545Z,87.63
2022-10-09T02:27:13.072Z,78.33
2022-10-09T02:29:43.305Z,61.50
2022-10-09T02:32:11.747Z,65.50
2022-10-09T02:34:39.326Z,75.47
2022-10-09T02:37:08.038Z,85.70
2022-10-09T02:39:35.652Z,42.13
2022-10-09T02:42:03.313Z,48.70
2022-10-09T02:44:30.851Z,45.33
2022-10-09T02:46:59.720Z,65.70
2022-10-09T02:49:27.284Z,46.10
2022-10-09T02:51:54.971Z,29.67
2022-10-09T02:54:22.496Z,34.37
2022-10-09T02:56:50.012Z,31.60
2022-10-09T02:59:17.645Z,23.60
2022-10-09T03:01:45.267Z,26.07
2022-10-09T03:04:14.432Z,30.80
2022-10-09T03:06:41.972Z,27.07
2022-10-09T03:09:09.484Z,30.90
2022-10-09T03:11:36.995Z,29.60
2022-10-09T03:14:04.559Z,28.63
2022-10-09T03:16:32.168Z,30.30
2022-10-09T03:19:00.084Z,32.13
2022-10-09T03:21:29.819Z,37.27
2022-10-09T03:23:57.454Z,36.33
2022-10-09T03:26:26.847Z,43.13
2022-10-09T03:28:56.169Z,34.27
2022-10-09T03:31:51.143Z,30.03
2022-10-09T03:34:14.208Z,34.70
2022-10-09T03:36:43.440Z,31.70
2022-10-09T03:39:11.202Z,29.13
2022-10-09T03:41:38.724Z,31.67
2022-10-09T03:44:06.422Z,27.40
2022-10-09T03:46:34.055Z,30.03
2022-10-09T03:49:01.625Z,44.73
2022-10-09T03:51:29.136Z,40.17
2022-10-09T03:53:58.336Z,71.80
2022-10-09T03:56:25.865Z,83.57
2022-10-09T03:58:53.382Z,216.37
2022-10-09T04:01:21.118Z,460.00
2022-10-09T04:03:48.944Z,645.37
2022-10-09T04:06:16.707Z,328.50
2022-10-09T04:08:44.260Z,328.80
2022-10-09T04:11:13.149Z,442.03
2022-10-09T04:13:40.733Z,311.53
2022-10-09T04:16:12.539Z,322.60
2022-10-09T04:18:40.513Z,158.93
2022-10-09T04:21:08.332Z,116.07
2022-10-09T04:23:35.906Z,116.43
2022-10-09T04:26:03.431Z,162.40
2022-10-09T04:28:33.622Z,165.67
2022-10-09T04:31:01.413Z,82.90
2022-10-09T04:33:29.081Z,117.83
2022-10-09T04:35:57.211Z,136.83
2022-10-09T04:38:25.701Z,108.87
2022-10-09T04:40:56.887Z,86.50
2022-10-09T04:43:24.587Z,107.17
2022-10-09T04:45:53.533Z,105.33
2022-10-09T04:48:21.149Z,135.23
2022-10-09T04:50:49.031Z,181.30
2022-10-09T04:53:16.677Z,141.43
2022-10-09T04:55:45.337Z,93.63
2022-10-09T04:58:13.824Z,142.43
2022-10-09T05:00:42.657Z,145.37
2022-10-09T05:03:12.003Z,149.27
2022-10-09T05:05:39.997Z,182.13
2022-10-09T05:08:07.603Z,134.63
2022-10-09T05:10:35.221Z,145.70
2022-10-09T05:13:02.768Z,163.60
2022-10-09T05:15:30.288Z,151.73
2022-10-09T05:17:58.156Z,135.80
2022-10-09T05:20:27.044Z,109.77
2022-10-09T05:22:54.749Z,90.70
2022-10-09T05:25:22.277Z,93.97
2022-10-09T05:27:49.799Z,105.50
2022-10-09T05:30:17.386Z,137.60
2022-10-09T05:32:44.887Z,128.27
2022-10-09T05:35:12.475Z,167.10
2022-10-09T05:37:41.343Z,129.20
2022-10-09T05:40:09.995Z,103.83
2022-10-09T05:42:37.665Z,59.10
2022-10-09T05:45:05.399Z,147.60
2022-10-09T05:47:32.950Z,117.93
2022-10-09T05:50:00.489Z,95.63
2022-10-09T05:52:28.009Z,159.80
2022-10-09T05:54:57.177Z,82.17
2022-10-09T05:57:24.715Z,101.93
2022-10-09T05:59:52.265Z,113.10
2022-10-09T06:02:19.794Z,80.10
2022-10-09T06:04:47.339Z,134.17
2022-10-09T06:07:14.868Z,111.03
2022-10-09T06:09:42.492Z,62.70
2022-10-09T06:12:11.365Z,75.37
2022-10-09T06:14:38.877Z,155.93
2022-10-09T06:17:06.532Z,117.30
2022-10-09T06:19:34.080Z,134.60
2022-10-09T06:22:01.586Z,106.40
2022-10-09T06:24:29.700Z,94.47
2022-10-09T06:26:57.805Z,114.40
2022-10-09T06:29:26.777Z,61.53
2022-10-09T06:31:54.557Z,62.13
2022-10-09T06:34:22.209Z,84.23
2022-10-09T06:36:49.887Z,72.57
2022-10-09T06:39:17.512Z,73.40
2022-10-09T06:41:45.139Z,55.63
2022-10-09T06:44:17.161Z,45.07
2022-10-09T06:46:49.302Z,50.67
2022-10-09T06:49:16.825Z,34.73
2022-10-09T06:51:44.335Z,31.57
2022-10-09T06:54:13.965Z,46.17
2022-10-09T06:56:41.611Z,47.80
2022-10-09T06:59:09.737Z,33.13
2022-10-09T07:01:37.296Z,34.30
2022-10-09T07:04:08.222Z,65.67
2022-10-09T07:06:39.840Z,41.97
2022-10-09T07:09:09.295Z,54.33
2022-10-09T07:11:39.133Z,42.00
2022-10-09T07:14:08.254Z,47.03
2022-10-09T07:16:37.576Z,51.20
2022-10-09T07:19:08.410Z,38.27
2022-10-09T07:21:36.300Z,61.30
2022-10-09T07:24:05.489Z,77.37
2022-10-09T07:26:35.009Z,112.27
2022-10-09T07:29:03.295Z,103.57
2022-10-09T07:31:30.806Z,78.60
2022-10-09T07:33:58.389Z,88.83
2022-10-09T07:36:27.841Z,83.80
2022-10-09T07:38:57.400Z,117.73
2022-10-09T07:41:26.819Z,103.97
2022-10-09T07:43:54.695Z,99.10
2022-10-09T07:46:23.865Z,87.43
2022-10-09T07:48:51.598Z,93.37
2022-10-09T07:51:21.174Z,114.53
2022-10-09T07:53:50.471Z,45.00
2022-10-09T07:56:19.736Z,48.10
2022-10-09T07:58:50.059Z,75.70
2022-10-09T08:01:20.279Z,90.57
2022-10-09T08:03:48.703Z,49.00
2022-10-09T08:06:16.328Z,92.57
2022-10-09T08:08:44.498Z,48.97
2022-10-09T08:11:16.296Z,55.60
2022-10-09T08:13:45.164Z,54.73
2022-10-09T08:16:12.966Z,48.83
2022-10-09T08:18:40.483Z,38.57
2022-10-09T08:21:10.085Z,54.97
2022-10-09T08:23:37.775Z,57.07
2022-10-09T08:26:06.395Z,51.03
2022-10-09T08:28:35.432Z,66.55
2022-10-09T08:31:11.085Z,42.53
2022-10-09T08:33:38.589Z,45.95
2022-10-09T08:36:07.862Z,44.25
2022-10-09T08:38:47.117Z,49.67
2022-10-09T08:41:25.854Z,45.97
2022-10-09T08:44:02.185Z,46.85
2022-10-09T08:46:34.392Z,45.53
2022-10-09T08:49:05.309Z,39.53
2022-10-09T08:51:39.501Z,43.17
2022-10-09T08:54:20.264Z,23.83
2022-10-09T08:56:48.644Z,7.53
2022-10-09T08:59:17.524Z,6.88
2022-10-09T09:01:51.165Z,7.95
2022-10-09T09:04:39.696Z,8.10
2022-10-09T09:07:17.395Z,7.70
2022-10-09T09:09:54.072Z,8.90
2022-10-09T09:12:28.396Z,9.85
2022-10-09T09:15:18.711Z,8.55
2022-10-09T09:17:55.157Z,8.88
2022-10-09T09:20:26.546Z,6.75
2022-10-09T09:22:54.338Z,7.57
2022-10-09T09:25:24.933Z,9.05
2022-10-09T09:27:53.880Z,8.40
2022-10-09T09:30:28.799Z,10.05
2022-10-09T09:33:05.539Z,8.85
2022-10-09T09:35:38.744Z,6.40
2022-10-09T09:38:06.277Z,6.72
2022-10-09T09:40:37.301Z,7.05
2022-10-09T09:43:12.998Z,7.70
2022-10-09T09:45:43.735Z,7.18
2022-10-09T09:48:15.972Z,5.72
2022-10-09T09:50:53.079Z,6.72
2022-10-09T09:53:36.797Z,5.68
2022-10-09T09:56:05.442Z,7.32
2022-10-09T09:58:36.364Z,7.05
2022-10-09T10:01:07.591Z,4.97
2022-10-09T10:03:36.743Z,5.78
2022-10-09T10:06:04.817Z,7.18
2022-10-09T10:08:34.484Z,7.05
2022-10-09T10:11:06.095Z,6.75
2022-10-09T10:13:37.952Z,6.53
2022-10-09T10:16:09.269Z,7.40
2022-10-09T10:18:40.281Z,6.97
2022-10-09T10:21:12.272Z,6.63
2022-10-09T10:23:43.563Z,6.32
2022-10-09T10:26:27.995Z,7.63
2022-10-09T10:29:02.370Z,7.32
2022-10-09T10:31:39.668Z,7.70
2022-10-09T10:34:15.181Z,6.93
2022-10-09T10:36:42.853Z,6.97
2022-10-09T10:39:19.852Z,7.50
2022-10-09T10:41:52.275Z,6.32
2022-10-09T10:44:24.372Z,5.85
2022-10-09T10:46:59.974Z,9.65
2022-10-09T10:49:32.894Z,6.78
2022-10-09T10:52:15.501Z,5.43
2022-10-09T10:54:51.149Z,6.10
2022-10-09T10:57:25.064Z,4.95
2022-10-09T11:00:03.826Z,5.50
2022-10-09T11:03:03.493Z,4.75
2022-10-09T11:05:40.204Z,4.03
2022-10-09T11:08:22.280Z,3.97
2022-10-09T11:11:00.519Z,2.63
2022-10-09T11:13:33.178Z,4.35
2022-10-09T11:16:17.241Z,4.93
2022-10-09T11:19:04.642Z,3.17
2022-10-09T11:21:51.986Z,3.60
2022-10-09T11:24:33.503Z,3.00
2022-10-09T11:27:11.682Z,3.38
2022-10-09T11:29:44.948Z,3.38
2022-10-09T11:32:16.480Z,2.90
2022-10-09T11:34:49.542Z,2.50
2022-10-09T11:37:21.989Z,2.60
2022-10-09T11:39:49.478Z,3.22
2022-10-09T11:42:22.365Z,2.85
2022-10-09T11:45:02.008Z,2.83
2022-10-09T11:47:36.024Z,3.35
2022-10-09T11:50:32.766Z,3.10
2022-10-09T11:53:05.851Z,5.13
2022-10-09T11:55:34.861Z,3.55
2022-10-09T11:58:14.816Z,2.67
2022-10-09T12:00:43.508Z,2.60
2022-10-09T12:03:25.465Z,3.47
2022-10-09T12:06:04.484Z,2.72
2022-10-09T12:08:32.160Z,3.00
2022-10-09T12:11:08.142Z,4.40
2022-10-09T12:13:48.945Z,2.85
2022-10-09T12:16:47.114Z,4.10
2022-10-09T12:19:19.610Z,2.92
2022-10-09T12:21:52.666Z,2.78
2022-10-09T12:24:23.996Z,3.47
2022-10-09T12:26:54.097Z,3.08
2022-10-09T12:29:28.275Z,3.63
2022-10-09T12:31:59.950Z,4.25
2022-10-09T12:34:30.945Z,2.75
2022-10-09T12:37:11.248Z,3.00
2022-10-09T12:39:39.071Z,4.00
2022-10-09T12:42:09.065Z,3.53
2022-10-09T12:44:40.363Z,2.63
2022-10-09T12:47:14.060Z,4.60
2022-10-09T12:49:41.732Z,2.75
2022-10-09T12:52:16.821Z,2.55
2022-10-09T12:54:45.616Z,2.33
2022-10-09T12:57:16.437Z,3.10
2022-10-09T12:59:45.316Z,4.50
2022-10-09T13:02:16.179Z,2.95
2022-10-09T13:04:56.355Z,2.58
2022-10-09T13:07:27.927Z,2.78
2022-10-09T13:10:06.159Z,2.30
2022-10-09T13:12:35.536Z,3.53
2022-10-09T13:15:05.487Z,2.65
2022-10-09T13:17:35.263Z,1.95
2022-10-09T13:20:05.565Z,2.47
2022-10-09T13:22:35.980Z,7.10
2022-10-09T13:25:04.524Z,3.15
2022-10-09T13:27:34.928Z,3.15
2022-10-09T13:30:02.534Z,2.60
2022-10-09T13:32:30.912Z,2.10
2022-10-09T13:34:58.428Z,2.50
2022-10-09T13:37:27.276Z,3.00
2022-10-09T13:39:58.127Z,3.30
2022-10-09T13:42:28.139Z,2.63
2022-10-09T13:44:55.707Z,5.35
2022-10-09T13:47:24.642Z,3.53
2022-10-09T13:49:52.742Z,2.80
2022-10-09T13:52:20.304Z,4.05
2022-10-09T13:54:47.831Z,4.25
2022-10-09T13:57:16.693Z,3.22
2022-10-09T13:59:44.357Z,3.50
2022-10-09T14:02:12.627Z,6.90
2022-10-09T14:04:40.306Z,3.35
2022-10-09T14:07:07.883Z,4.90
2022-10-09T14:09:35.404Z,3.20
2022-10-09T14:12:02.979Z,4.53
2022-10-09T14:14:31.857Z,3.13
2022-10-09T14:16:59.343Z,4.22
2022-10-09T14:19:28.019Z,3.97
2022-10-09T14:21:55.834Z,3.83
2022-10-09T14:24:23.606Z,4.28
2022-10-09T14:26:51.855Z,3.72
2022-10-09T14:29:19.524Z,3.47
2022-10-09T14:31:50.854Z,2.63
2022-10-09T14:34:18.691Z,4.13
2022-10-09T14:36:46.427Z,3.15
2022-10-09T14:39:13.982Z,4.55
2022-10-09T14:41:41.749Z,3.88
2022-10-09T14:44:10.934Z,3.42
2022-10-09T14:46:39.250Z,2.75
2022-10-09T14:49:09.055Z,2.65
2022-10-09T14:51:38.134Z,2.75
2022-10-09T14:54:07.328Z,4.55
2022-10-09T14:56:35.558Z,5.13
2022-10-09T14:59:03.420Z,3.20
2022-10-09T15:01:31.153Z,3.08
2022-10-09T15:04:00.497Z,2.67
2022-10-09T15:06:29.906Z,4.68
2022-10-09T15:09:04.632Z,3.65
2022-10-09T15:11:34.379Z,3.17
2022-10-09T15:14:01.908Z,3.03
2022-10-09T15:16:29.420Z,7.65
2022-10-09T15:18:57.387Z,3.67
2022-10-09T15:21:27.065Z,4.93
2022-10-09T15:23:57.089Z,4.18
2022-10-09T15:26:26.537Z,5.38
2022-10-09T15:28:54.107Z,4.43
2022-10-09T15:31:25.059Z,3.30
2022-10-09T15:33:53.839Z,3.30
2022-10-09T15:36:22.276Z,3.70
2022-10-09T15:38:50.099Z,3.75
2022-10-09T15:41:23.393Z,3.42
2022-10-09T15:43:51.419Z,8.63
2022-10-09T15:46:19.157Z,4.00
2022-10-09T15:48:46.898Z,4.00
2022-10-09T15:51:14.611Z,4.00
2022-10-09T15:53:43.418Z,4.22
2022-10-09T15:56:13.628Z,5.57
2022-10-09T15:58:42.710Z,5.57
2022-10-09T16:01:12.150Z,6.28
2022-10-09T16:03:40.724Z,5.28
2022-10-09T16:06:10.891Z,6.45
2022-10-09T16:08:40.007Z,6.85
2022-10-09T16:13:45.999Z,6.13
2022-10-09T16:16:16.514Z,6.38
2022-10-09T16:18:44.324Z,8.23
2022-10-09T16:21:13.911Z,9.70
2022-10-09T16:23:41.517Z,14.68
2022-10-09T16:26:09.401Z,7.68
2022-10-09T16:28:37.710Z,7.60
2022-10-09T16:31:07.179Z,6.95
2022-10-09T16:33:34.704Z,7.63
2022-10-09T16:36:09.367Z,6.80
2022-10-09T16:38:37.039Z,7.53
2022-10-09T16:41:08.860Z,6.78
2022-10-09T16:43:37.396Z,7.80
2022-10-09T16:46:12.512Z,6.72
2022-10-09T16:48:40.044Z,5.32
2022-10-09T16:51:12.243Z,5.25
2022-10-09T16:53:40.189Z,4.72
2022-10-09T16:56:10.125Z,4.38
2022-10-09T16:58:37.992Z,4.63
2022-10-09T17:01:09.826Z,7.10
2022-10-09T17:03:41.231Z,4.97
2022-10-09T17:06:10.421Z,6.95
2022-10-09T17:08:38.255Z,6.30
2022-10-09T17:11:08.140Z,6.15
2022-10-09T17:13:35.741Z,5.90
2022-10-09T17:16:06.038Z,5.03
2022-10-09T17:18:33.704Z,5.82
2022-10-09T17:21:03.827Z,5.88
2022-10-09T17:23:31.631Z,6.05
2022-10-09T17:25:59.268Z,6.32
2022-10-09T17:28:26.896Z,6.75
2022-10-09T17:30:54.432Z,6.97
2022-10-09T17:33:21.939Z,6.53
2022-10-09T17:35:49.471Z,5.85
2022-10-09T17:38:18.327Z,6.25
2022-10-09T17:40:45.872Z,6.78
2022-10-09T17:43:13.357Z,6.45
2022-10-09T17:45:42.689Z,7.15
2022-10-09T17:48:10.927Z,5.57
2022-10-09T17:50:38.495Z,7.32
2022-10-09T17:53:06.276Z,6.03
2022-10-09T17:55:38.383Z,5.60
2022-10-09T17:58:05.903Z,6.22
2022-10-09T18:00:33.453Z,5.78
2022-10-09T18:03:00.965Z,6.78
2022-10-09T18:05:28.487Z,5.47
2022-10-09T18:07:56.029Z,6.18
2022-10-09T18:10:23.841Z,7.13
2022-10-09T18:12:52.711Z,6.00
2022-10-09T18:15:20.264Z,4.97
2022-10-09T18:17:48.048Z,6.72
2022-10-09T18:20:15.859Z,6.18
2022-10-09T18:22:43.488Z,6.05
2022-10-09T18:25:11.050Z,6.90
2022-10-09T18:27:38.560Z,6.70
2022-10-09T18:30:08.706Z,6.32
2022-10-09T18:32:36.203Z,6.07
2022-10-09T18:35:03.923Z,5.50
2022-10-09T18:37:31.433Z,6.22
2022-10-09T18:39:58.957Z,6.88
2022-10-09T18:42:26.499Z,6.72
2022-10-09T18:44:54.065Z,7.22
2022-10-09T18:47:28.283Z,6.63
2022-10-09T18:49:57.852Z,7.45
2022-10-09T18:52:26.134Z,5.90
2022-10-09T18:54:55.629Z,6.53
2022-10-09T18:57:25.970Z,7.53
2022-10-09T18:59:55.372Z,6.38
2022-10-09T19:02:26.773Z,10.38
2022-10-09T19:04:54.551Z,8.63
2022-10-09T19:07:22.079Z,6.53
2022-10-09T19:09:53.528Z,7.75
2022-10-09T19:12:22.562Z,10.15
2022-10-09T19:14:50.106Z,11.13
2022-10-09T19:17:17.641Z,9.90
2022-10-09T19:19:46.661Z,8.75
2022-10-09T19:22:16.601Z,10.02
2022-10-09T19:24:45.774Z,10.93
2022-10-09T19:27:13.613Z,11.95
2022-10-09T19:29:41.154Z,12.82
2022-10-09T19:32:08.704Z,11.93
2022-10-09T19:34:36.252Z,11.63
2022-10-09T19:39:37.915Z,12.37
2022-10-09T19:42:05.512Z,12.30
2022-10-09T19:44:33.023Z,10.85
2022-10-09T19:47:00.603Z,12.77
2022-10-09T19:49:31.503Z,10.63
2022-10-09T19:51:59.073Z,8.82
2022-10-09T19:54:28.056Z,8.80
2022-10-09T19:56:55.564Z,8.37
2022-10-09T19:59:23.078Z,8.80
2022-10-09T20:01:55.160Z,10.90
2022-10-09T20:04:24.811Z,8.50
2022-10-09T20:06:52.409Z,7.53
2022-10-09T20:09:20.717Z,9.13
2022-10-09T20:11:49.637Z,10.77
2022-10-09T20:14:17.195Z,9.97
2022-10-09T20:16:44.888Z,8.80
2022-10-09T20:19:12.751Z,8.40
2022-10-09T20:21:40.419Z,9.37
2022-10-09T20:24:08.310Z,10.53
2022-10-09T20:26:38.674Z,11.30
2022-10-09T20:29:11.330Z,10.27
2022-10-09T20:31:39.611Z,11.43
2022-10-09T20:34:07.255Z,11.40
2022-10-09T20:36:36.956Z,12.67
2022-10-09T20:39:07.835Z,12.70
2022-10-09T20:41:35.943Z,10.53
2022-10-09T20:44:04.764Z,11.20
2022-10-09T20:46:36.145Z,16.50
2022-10-09T20:49:05.303Z,10.00
2022-10-09T20:51:35.115Z,9.83
2022-10-09T20:54:03.220Z,11.27
2022-10-09T20:56:32.517Z,11.03
2022-10-09T20:59:01.305Z,9.67
2022-10-09T21:01:29.559Z,10.90
2022-10-09T21:03:59.439Z,11.63
2022-10-09T21:06:27.788Z,12.43
2022-10-09T21:08:55.907Z,12.87
2022-10-09T21:11:24.146Z,14.00
2022-10-09T21:13:52.209Z,12.13
2022-10-09T21:16:22.428Z,10.40
2022-10-09T21:18:54.547Z,10.00
2022-10-09T21:21:23.431Z,9.87
2022-10-09T21:23:51.986Z,11.33
2022-10-09T21:26:21.284Z,12.23
2022-10-09T21:28:48.845Z,9.30
2022-10-09T21:31:18.772Z,8.07
2022-10-09T21:33:46.728Z,8.90
2022-10-09T21:36:22.607Z,9.63
2022-10-09T21:38:51.472Z,9.60
2022-10-09T21:41:19.020Z,9.23
2022-10-09T21:43:46.599Z,9.93
2022-10-09T21:46:14.136Z,9.93
2022-10-09T21:48:41.684Z,8.43
2022-10-09T21:51:09.283Z,8.97
2022-10-09T21:53:36.800Z,9.50
2022-10-09T21:56:06.859Z,10.17
2022-10-09T21:58:34.418Z,9.10
2022-10-09T22:01:03.595Z,9.80
2022-10-09T22:03:34.098Z,8.50
2022-10-09T22:06:05.699Z,8.90
2022-10-09T22:08:33.305Z,7.40
2022-10-09T22:11:00.883Z,9.18
2022-10-09T22:13:29.753Z,8.63
2022-10-09T22:15:57.316Z,7.40
2022-10-09T22:18:24.847Z,9.37
2022-10-09T22:20:52.542Z,9.43
2022-10-09T22:23:21.433Z,7.93
2022-10-09T22:25:57.041Z,8.17
2022-10-09T22:28:25.014Z,9.90
2022-10-09T22:31:06.213Z,7.27
2022-10-09T22:33:34.133Z,7.43
2022-10-09T22:36:06.947Z,8.10
2022-10-09T22:38:35.208Z,8.73
2022-10-09T22:41:04.753Z,12.50
2022-10-09T22:43:32.279Z,13.07
2022-10-09T22:45:59.892Z,11.53
2022-10-09T22:48:28.745Z,10.63
2022-10-09T22:50:56.269Z,10.83
2022-10-09T22:53:23.930Z,9.83
2022-10-09T22:55:51.492Z,10.00
2022-10-09T22:58:18.985Z,11.53
2022-10-09T23:00:46.532Z,7.90
2022-10-09T23:03:14.119Z,9.03
2022-10-09T23:05:42.969Z,10.60
2022-10-09T23:08:10.511Z,8.63
2022-10-09T23:10:38.468Z,7.20
2022-10-09T23:13:06.241Z,7.75
2022-10-09T23:15:35.580Z,8.57
2022-10-09T23:18:03.645Z,9.93
2022-10-09T23:20:31.556Z,12.10
2022-10-09T23:23:00.440Z,10.00
2022-10-09T23:25:27.960Z,7.47
2022-10-09T23:27:55.473Z,9.00
2022-10-09T23:30:22.980Z,10.20
2022-10-09T23:32:52.989Z,12.97
2022-10-09T23:35:20.587Z,8.25
2022-10-09T23:37:48.113Z,10.63
2022-10-09T23:40:17.094Z,10.75
2022-10-09T23:42:44.596Z,8.60
2022-10-09T23:45:12.451Z,11.90
2022-10-09T23:47:41.270Z,12.70
2022-10-09T23:50:09.090Z,17.08
2022-10-09T23:52:36.612Z,12.20
2022-10-09T23:55:04.270Z,7.30
2022-10-09T23:57:34.740Z,8.63
